Time;durP1;ratioP1;P1;durP2;ratioP2;P2;SDS_P1;SDS_P2;PMS_P1;PMS_P2;Temp;Humidity;BMP_temperature;BMP_pressure;BME280_temperature;BME280_humidity;BME280_pressure;Samples;Min_cycle;Max_cycle;Signal;HPM_P1;HPM_P2
2023/09/10 00:01:33;;;;;;;5.43;5.03;;;25.10;91.30;;;;;;6166644;23;20475;-85
2023/09/10 00:04:00;;;;;;;6.13;5.70;;;25.10;91.30;;;;;;6164285;23;20475;-85
2023/09/10 00:06:27;;;;;;;6.77;6.27;;;25.10;91.70;;;;;;6163958;23;20812;-85
2023/09/10 00:08:54;;;;;;;6.17;5.77;;;25.10;91.30;;;;;;6160927;23;20400;-90
2023/09/10 00:11:21;;;;;;;6.27;5.87;;;25.10;91.30;;;;;;6159157;23;20396;-85
2023/09/10 00:13:49;;;;;;;5.47;5.10;;;25.10;91.30;;;;;;6159412;23;20399;-85
2023/09/10 00:16:16;;;;;;;6.40;5.90;;;25.10;91.30;;;;;;6160154;23;20719;-85
2023/09/10 00:18:42;;;;;;;6.30;5.80;;;25.10;91.30;;;;;;6157774;23;20962;-85
2023/09/10 00:21:09;;;;;;;7.33;6.03;;;25.10;91.30;;;;;;6158559;23;20395;-85
2023/09/10 00:23:36;;;;;;;5.93;5.43;;;25.10;91.30;;;;;;6135916;23;1175883;-85
2023/09/10 00:26:03;;;;;;;6.37;5.80;;;25.10;91.30;;;;;;6190255;23;20633;-86
2023/09/10 00:28:30;;;;;;;8.37;6.40;;;25.10;91.30;;;;;;6165362;23;20422;-85
2023/09/10 00:30:58;;;;;;;6.50;6.10;;;25.10;91.30;;;;;;6189798;23;20405;-85
2023/09/10 00:33:25;;;;;;;6.50;6.00;;;25.10;91.30;;;;;;6166573;23;20456;-85
2023/09/10 00:35:51;;;;;;;5.10;4.70;;;25.10;91.30;;;;;;6159156;23;20510;-85
2023/09/10 00:38:18;;;;;;;6.17;5.77;;;25.10;91.30;;;;;;6158320;23;20764;-85
2023/09/10 00:40:45;;;;;;;6.27;5.87;;;25.10;91.30;;;;;;6157101;23;20887;-85
2023/09/10 00:43:12;;;;;;;5.70;5.30;;;25.10;91.30;;;;;;6162983;23;20902;-85
2023/09/10 00:45:39;;;;;;;5.93;5.53;;;25.10;91.30;;;;;;6161385;23;20408;-86
2023/09/10 00:48:07;;;;;;;6.70;6.20;;;25.10;91.30;;;;;;6161107;23;20391;-85
2023/09/10 00:50:35;;;;;;;6.03;5.63;;;25.10;91.30;;;;;;6157554;23;20526;-84
2023/09/10 00:53:02;;;;;;;5.60;5.17;;;25.10;91.30;;;;;;6158717;23;20705;-85
2023/09/10 00:55:32;;;;;;;6.57;6.07;;;25.10;91.30;;;;;;6161081;23;20891;-85
2023/09/10 00:58:00;;;;;;;5.70;5.30;;;25.10;91.30;;;;;;6157824;23;20439;-85
2023/09/10 01:00:28;;;;;;;5.80;5.40;;;25.10;91.30;;;;;;6159413;23;20431;-85
2023/09/10 01:02:58;;;;;;;7.20;6.70;;;25.10;91.30;;;;;;6157144;23;20412;-85
2023/09/10 01:05:27;;;;;;;6.53;5.90;;;25.10;91.30;;;;;;6159295;23;20406;-85
2023/09/10 01:07:55;;;;;;;6.47;5.97;;;25.10;91.30;;;;;;6158010;23;20961;-85
2023/09/10 01:10:26;;;;;;;6.60;6.10;;;25.10;91.30;;;;;;6161212;23;20414;-85
2023/09/10 01:13:04;;;;;;;6.03;5.63;;;25.10;91.30;;;;;;6162231;23;20395;-93
2023/09/10 01:15:36;;;;;;;6.30;5.80;;;25.10;91.30;;;;;;6165338;23;20399;-85
2023/09/10 01:18:07;;;;;;;6.77;6.07;;;25.00;91.20;;;;;;6170123;23;20965;-85
2023/09/10 01:21:16;;;;;;;6.40;5.90;;;25.00;91.20;;;;;;6189500;23;20410;-85
2023/09/10 01:23:51;;;;;;;6.00;5.60;;;25.10;91.20;;;;;;6070807;23;20414;-85
2023/09/10 01:26:20;;;;;;;6.00;5.60;;;25.10;91.30;;;;;;6182155;23;20393;-85
2023/09/10 01:28:47;;;;;;;6.07;5.57;;;25.20;91.30;;;;;;6192190;23;20394;-85
2023/09/10 01:31:13;;;;;;;5.80;5.40;;;25.10;91.30;;;;;;6192466;23;20449;-88
2023/09/10 01:33:46;;;;;;;6.50;6.00;;;25.10;91.30;;;;;;6175012;23;20455;-85
2023/09/10 01:36:17;;;;;;;6.63;6.13;;;25.10;91.30;;;;;;6162203;23;20372;-87
2023/09/10 01:38:52;;;;;;;6.43;5.93;;;25.10;91.30;;;;;;6163022;23;20454;-91
2023/09/10 01:41:21;;;;;;;6.90;6.30;;;25.00;91.20;;;;;;6162030;23;20430;-87
2023/09/10 01:43:56;;;;;;;6.90;6.30;;;25.10;91.30;;;;;;6161438;23;20383;-87
2023/09/10 01:46:26;;;;;;;6.60;6.10;;;25.10;91.40;;;;;;6160850;23;20890;-87
2023/09/10 01:48:52;;;;;;;6.47;5.93;;;25.10;91.20;;;;;;6165979;23;20453;-86
2023/09/10 01:51:19;;;;;;;6.67;6.27;;;25.00;91.20;;;;;;6191115;23;20864;-87
2023/09/10 01:53:47;;;;;;;5.80;5.40;;;25.00;91.20;;;;;;6189255;23;20411;-87
2023/09/10 01:56:14;;;;;;;6.30;5.90;;;25.10;91.20;;;;;;6178791;23;20447;-86
2023/09/10 01:58:42;;;;;;;6.43;6.03;;;25.00;91.20;;;;;;6161348;23;20455;-87
2023/09/10 02:01:08;;;;;;;5.90;5.50;;;25.10;91.20;;;;;;6162312;23;20496;-86
2023/09/10 02:03:35;;;;;;;7.10;6.50;;;25.10;91.20;;;;;;6159578;23;20409;-87
2023/09/10 02:06:03;;;;;;;6.00;5.50;;;25.00;91.20;;;;;;6159150;23;20431;-87
2023/09/10 02:08:30;;;;;;;6.10;5.60;;;25.10;91.20;;;;;;6159974;23;20490;-87
2023/09/10 02:10:57;;;;;;;7.00;6.50;;;25.10;91.20;;;;;;6161174;23;20600;-87
2023/09/10 02:13:23;;;;;;;6.90;6.40;;;25.00;91.20;;;;;;6157603;23;20404;-87
2023/09/10 02:15:51;;;;;;;7.23;6.73;;;25.00;91.20;;;;;;6161182;23;20414;-86
2023/09/10 02:18:18;;;;;;;6.80;6.20;;;25.00;91.20;;;;;;6157232;23;20534;-87
2023/09/10 02:20:45;;;;;;;6.50;6.00;;;25.00;91.10;;;;;;6162762;23;20469;-86
2023/09/10 02:23:12;;;;;;;5.77;5.30;;;25.00;91.10;;;;;;6158979;23;20430;-87
2023/09/10 02:25:39;;;;;;;6.60;6.10;;;25.00;91.10;;;;;;6160414;23;20494;-87
2023/09/10 02:28:06;;;;;;;6.60;6.10;;;25.00;91.20;;;;;;6157085;23;20436;-86
2023/09/10 02:30:33;;;;;;;6.83;6.33;;;25.00;91.10;;;;;;6163428;23;20392;-87
2023/09/10 02:33:01;;;;;;;7.57;6.90;;;25.00;91.10;;;;;;6163951;23;20408;-87
2023/09/10 02:35:28;;;;;;;6.80;6.30;;;25.00;91.10;;;;;;6158917;23;20407;-87
2023/09/10 02:37:54;;;;;;;6.17;5.77;;;25.00;91.10;;;;;;6159380;23;20439;-87
2023/09/10 02:40:21;;;;;;;6.70;6.20;;;25.00;91.10;;;;;;6160548;23;20414;-87
2023/09/10 02:42:49;;;;;;;6.67;6.17;;;25.00;91.10;;;;;;6162231;23;20400;-86
2023/09/10 02:45:16;;;;;;;6.70;6.20;;;25.00;91.10;;;;;;6186646;23;20530;-87
2023/09/10 02:47:43;;;;;;;6.30;5.87;;;25.00;91.10;;;;;;6187244;23;20395;-87
2023/09/10 02:50:11;;;;;;;6.37;5.97;;;25.00;91.10;;;;;;6191124;23;20482;-86
2023/09/10 02:52:38;;;;;;;5.57;5.17;;;25.00;91.10;;;;;;6191955;23;20417;-87
2023/09/10 02:55:05;;;;;;;6.80;6.20;;;25.00;91.10;;;;;;6195046;23;20438;-87
2023/09/10 02:57:32;;;;;;;6.03;5.53;;;25.00;91.10;;;;;;6193820;23;20989;-86
2023/09/10 03:00:11;;;;;;;6.03;5.50;;;25.00;91.10;;;;;;6197895;23;20487;-87
2023/09/10 03:02:38;;;;;;;5.90;5.50;;;25.00;91.10;;;;;;6192430;23;20395;-87
2023/09/10 03:05:05;;;;;;;6.77;6.27;;;25.00;91.10;;;;;;6190767;23;20405;-87
2023/09/10 03:07:34;;;;;;;5.87;5.47;;;25.00;91.10;;;;;;6194607;23;20985;-87
2023/09/10 03:10:01;;;;;;;6.60;6.10;;;25.00;91.10;;;;;;6192469;23;20387;-86
2023/09/10 03:12:30;;;;;;;5.90;5.50;;;25.00;91.00;;;;;;6192602;23;20533;-86
2023/09/10 03:14:56;;;;;;;6.30;5.80;;;25.00;91.00;;;;;;6190604;23;20446;-86
2023/09/10 03:17:23;;;;;;;6.50;6.00;;;25.00;91.00;;;;;;6188112;23;20482;-86
2023/09/10 03:19:50;;;;;;;6.17;5.67;;;25.00;91.00;;;;;;6187890;23;20957;-87
2023/09/10 03:22:17;;;;;;;6.13;5.67;;;25.00;91.00;;;;;;6195802;23;20415;-87
2023/09/10 03:24:45;;;;;;;6.77;6.27;;;25.00;91.00;;;;;;6190337;23;20387;-87
2023/09/10 03:27:12;;;;;;;5.90;5.50;;;25.00;91.00;;;;;;6165599;23;20538;-87
2023/09/10 03:29:38;;;;;;;6.57;6.07;;;25.00;91.40;;;;;;6161541;23;20407;-87
2023/09/10 03:32:07;;;;;;;5.70;5.30;;;25.00;91.00;;;;;;6161948;23;20495;-87
2023/09/10 03:34:33;;;;;;;6.10;5.60;;;25.00;91.00;;;;;;6160945;23;20750;-87
2023/09/10 03:37:00;;;;;;;6.10;5.70;;;25.00;91.00;;;;;;6162842;23;20418;-87
2023/09/10 03:39:28;;;;;;;6.10;5.70;;;25.00;91.00;;;;;;6161785;23;20569;-86
2023/09/10 03:41:56;;;;;;;6.37;5.87;;;25.00;91.00;;;;;;6169663;23;20447;-86
2023/09/10 03:44:23;;;;;;;6.37;5.87;;;25.00;91.00;;;;;;6193668;23;20497;-87
2023/09/10 03:46:50;;;;;;;6.00;5.60;;;25.00;91.00;;;;;;6188922;23;20409;-87
2023/09/10 03:49:16;;;;;;;6.70;6.20;;;25.00;91.00;;;;;;6196704;23;20387;-88
2023/09/10 03:51:43;;;;;;;5.67;5.27;;;25.00;91.00;;;;;;6198427;23;20770;-87
2023/09/10 03:54:11;;;;;;;7.10;6.50;;;25.00;91.00;;;;;;6197179;23;20397;-87
2023/09/10 03:56:38;;;;;;;7.73;6.20;;;25.00;91.00;;;;;;6189370;23;20449;-87
2023/09/10 03:59:07;;;;;;;6.10;5.70;;;25.00;91.00;;;;;;6201044;23;20542;-87
2023/09/10 04:01:34;;;;;;;6.00;5.60;;;25.00;91.00;;;;;;6193718;23;20438;-88
2023/09/10 04:04:01;;;;;;;6.60;6.10;;;25.00;91.00;;;;;;6191703;23;20957;-87
2023/09/10 04:06:27;;;;;;;6.30;5.80;;;25.00;91.00;;;;;;6189916;23;20423;-87
2023/09/10 04:08:54;;;;;;;6.80;6.30;;;24.90;90.90;;;;;;6194279;23;20411;-87
2023/09/10 04:11:21;;;;;;;6.90;6.43;;;25.00;90.90;;;;;;6189656;23;20403;-87
2023/09/10 04:13:47;;;;;;;6.13;5.73;;;25.00;90.90;;;;;;6170469;23;20446;-87
2023/09/10 04:16:16;;;;;;;6.20;5.80;;;25.00;90.90;;;;;;6159638;23;20400;-87
2023/09/10 04:18:42;;;;;;;6.00;5.60;;;25.00;90.90;;;;;;6162296;23;20539;-87
2023/09/10 04:21:09;;;;;;;5.63;5.30;;;25.00;90.90;;;;;;6158928;23;20456;-87
2023/09/10 04:23:36;;;;;;;7.00;6.40;;;24.90;90.90;;;;;;6158256;23;20410;-86
2023/09/10 04:26:03;;;;;;;5.97;5.53;;;25.00;90.90;;;;;;6173903;23;20486;-87
2023/09/10 04:28:30;;;;;;;6.00;5.50;;;25.00;90.90;;;;;;6189916;23;20718;-86
2023/09/10 04:30:56;;;;;;;6.87;6.27;;;25.00;90.90;;;;;;6189672;23;20502;-87
2023/09/10 04:33:25;;;;;;;6.40;6.00;;;25.00;90.90;;;;;;6186137;23;20985;-86
2023/09/10 04:35:53;;;;;;;6.27;5.87;;;25.00;90.90;;;;;;6193295;23;20808;-87
2023/09/10 04:38:20;;;;;;;6.57;6.07;;;25.00;90.90;;;;;;6187381;23;20444;-86
2023/09/10 04:40:47;;;;;;;6.10;5.70;;;25.00;90.90;;;;;;6167617;23;20407;-86
2023/09/10 04:43:14;;;;;;;6.20;5.80;;;25.00;90.90;;;;;;6188724;23;20411;-87
2023/09/10 04:45:41;;;;;;;6.70;6.20;;;25.00;90.90;;;;;;6196109;23;20478;-86
2023/09/10 04:48:08;;;;;;;6.70;6.20;;;24.90;90.90;;;;;;6188978;23;20411;-87
2023/09/10 04:50:36;;;;;;;6.30;5.80;;;24.90;90.80;;;;;;6192214;23;20397;-87
2023/09/10 04:53:03;;;;;;;6.50;6.00;;;24.90;90.90;;;;;;6188744;23;20894;-86
2023/09/10 04:55:30;;;;;;;6.30;5.90;;;24.90;90.90;;;;;;6191947;23;20497;-86
2023/09/10 04:57:56;;;;;;;7.00;6.50;;;24.90;90.80;;;;;;6187661;23;20405;-86
2023/09/10 05:00:23;;;;;;;6.23;5.77;;;25.00;90.90;;;;;;6190993;23;20465;-96
2023/09/10 05:02:50;;;;;;;7.07;6.57;;;24.90;90.80;;;;;;6188068;23;20405;-85
2023/09/10 05:05:17;;;;;;;5.63;5.23;;;24.90;90.80;;;;;;6188753;23;20409;-87
2023/09/10 05:07:48;;;;;;;6.37;5.97;;;24.90;90.80;;;;;;6189121;23;20920;-87
2023/09/10 05:10:15;;;;;;;6.07;5.67;;;24.90;90.80;;;;;;6190967;23;21037;-87
2023/09/10 05:12:42;;;;;;;6.40;6.00;;;24.90;90.80;;;;;;6191148;23;20899;-87
2023/09/10 05:15:11;;;;;;;6.40;5.90;;;24.90;90.80;;;;;;6189773;23;20415;-87
2023/09/10 05:17:38;;;;;;;6.37;5.97;;;24.90;90.80;;;;;;6193452;23;20521;-87
2023/09/10 05:20:07;;;;;;;7.10;6.50;;;24.90;90.80;;;;;;6190612;23;20426;-87
2023/09/10 05:22:34;;;;;;;6.73;6.23;;;24.90;90.80;;;;;;6193305;23;20450;-87
2023/09/10 05:25:02;;;;;;;6.67;6.07;;;25.00;90.90;;;;;;6188431;23;20490;-87
2023/09/10 05:27:29;;;;;;;6.03;5.63;;;24.90;90.80;;;;;;6189773;23;20415;-87
2023/09/10 05:30:03;;;;;;;7.03;6.43;;;24.90;90.80;;;;;;6193412;23;20802;-88
2023/09/10 05:32:31;;;;;;;6.53;5.93;;;24.90;90.80;;;;;;6167878;23;20437;-87
2023/09/10 05:34:57;;;;;;;5.83;5.43;;;24.90;90.80;;;;;;6204807;23;20431;-88
2023/09/10 05:37:24;;;;;;;5.87;5.47;;;24.90;90.80;;;;;;6203839;23;20930;-87
2023/09/10 05:39:51;;;;;;;7.20;6.60;;;24.90;90.80;;;;;;6197504;23;21008;-85
2023/09/10 05:42:24;;;;;;;6.00;5.60;;;24.90;90.80;;;;;;6204780;23;20441;-96
2023/09/10 05:44:52;;;;;;;6.50;6.10;;;24.90;90.90;;;;;;6193117;23;20391;-85
2023/09/10 05:47:20;;;;;;;6.27;5.87;;;24.90;90.80;;;;;;6193160;23;20379;-91
2023/09/10 05:49:48;;;;;;;6.90;6.40;;;24.90;90.80;;;;;;6131667;23;20432;-85
2023/09/10 05:52:30;;;;;;;7.07;6.50;;;24.90;90.80;;;;;;6192874;23;20778;-87
2023/09/10 05:54:56;;;;;;;6.30;5.80;;;24.90;90.80;;;;;;6204888;23;20455;-93
2023/09/10 05:57:25;;;;;;;6.30;5.80;;;24.90;90.80;;;;;;6196603;23;20410;-86
2023/09/10 05:59:52;;;;;;;6.27;5.83;;;24.90;90.80;;;;;;6199957;23;20430;-96
2023/09/10 06:02:18;;;;;;;5.73;5.30;;;24.90;90.90;;;;;;6202052;23;20395;-87
2023/09/10 06:04:45;;;;;;;5.63;5.33;;;24.90;90.80;;;;;;6198523;23;20515;-96
2023/09/10 06:07:12;;;;;;;7.67;6.77;;;24.90;90.80;;;;;;6169411;23;20391;-91
2023/09/10 06:09:39;;;;;;;6.80;6.20;;;24.90;90.90;;;;;;6169031;23;20502;-86
2023/09/10 06:12:06;;;;;;;8.63;6.80;;;24.90;90.80;;;;;;6166846;23;20456;-86
2023/09/10 06:14:34;;;;;;;7.20;6.50;;;24.90;90.80;;;;;;6168536;23;20403;-96
2023/09/10 06:17:02;;;;;;;6.50;6.00;;;24.90;90.80;;;;;;6175864;23;20462;-85
2023/09/10 06:19:29;;;;;;;10.90;9.93;;;24.90;90.80;;;;;;6167580;23;20479;-86
2023/09/10 06:21:56;;;;;;;12.93;11.60;;;24.90;90.80;;;;;;6166702;23;20954;-94
2023/09/10 06:24:23;;;;;;;18.10;11.50;;;24.90;90.90;;;;;;6163060;23;20418;-89
2023/09/10 06:26:49;;;;;;;14.50;12.20;;;24.90;91.00;;;;;;6157250;23;20867;-88
2023/09/10 06:29:16;;;;;;;13.80;12.50;;;24.80;91.10;;;;;;6157814;23;20490;-90
2023/09/10 06:31:44;;;;;;;18.10;11.10;;;24.70;91.30;;;;;;6156563;23;20406;-87
2023/09/10 06:34:11;;;;;;;19.33;11.77;;;24.70;91.50;;;;;;6157175;23;20395;-90
2023/09/10 06:36:38;;;;;;;13.33;12.13;;;24.70;91.60;;;;;;6157215;23;21014;-88
2023/09/10 06:39:05;;;;;;;13.37;12.10;;;24.60;91.70;;;;;;6157367;23;20459;-90
2023/09/10 06:41:32;;;;;;;15.23;13.03;;;24.60;91.80;;;;;;6157058;23;20404;-88
2023/09/10 06:43:59;;;;;;;13.50;12.20;;;24.70;91.90;;;;;;6156679;23;20499;-88
2023/09/10 06:46:25;;;;;;;15.47;12.70;;;24.60;91.90;;;;;;6156746;23;20409;-89
2023/09/10 06:48:53;;;;;;;15.50;11.83;;;24.60;92.00;;;;;;6156798;23;20446;-88
2023/09/10 06:51:20;;;;;;;13.50;12.20;;;24.60;92.20;;;;;;6156792;23;20400;-88
2023/09/10 06:53:47;;;;;;;13.20;11.90;;;24.50;92.10;;;;;;6156679;23;20400;-88
2023/09/10 06:56:14;;;;;;;13.23;11.83;;;24.60;92.20;;;;;;6157027;23;20408;-87
2023/09/10 06:58:40;;;;;;;14.93;12.20;;;24.60;92.20;;;;;;6157356;23;20404;-90
2023/09/10 07:01:08;;;;;;;14.27;12.60;;;24.60;92.20;;;;;;6156871;23;20907;-88
2023/09/10 07:03:35;;;;;;;13.77;12.20;;;24.60;92.30;;;;;;6157030;23;20404;-87
2023/09/10 07:06:04;;;;;;;18.43;14.00;;;24.60;92.40;;;;;;6156759;23;20930;-90
2023/09/10 07:08:31;;;;;;;18.67;12.93;;;24.60;92.80;;;;;;6157033;23;20439;-87
2023/09/10 07:10:58;;;;;;;14.10;12.77;;;24.60;93.00;;;;;;6156731;23;20414;-88
2023/09/10 07:13:25;;;;;;;13.80;12.60;;;24.60;93.10;;;;;;6157202;23;20490;-87
2023/09/10 07:15:52;;;;;;;18.33;12.70;;;24.60;93.20;;;;;;6157172;23;20491;-87
2023/09/10 07:18:18;;;;;;;13.50;11.83;;;24.60;93.20;;;;;;6156713;23;20404;-88
2023/09/10 07:20:45;;;;;;;14.60;13.00;;;24.70;93.20;;;;;;6156443;23;20447;-88
2023/09/10 07:23:13;;;;;;;16.40;13.00;;;24.70;93.00;;;;;;6156430;23;20410;-88
2023/09/10 07:25:40;;;;;;;16.20;11.97;;;24.70;93.00;;;;;;6155818;23;20887;-88
2023/09/10 07:28:07;;;;;;;13.90;12.40;;;24.70;92.80;;;;;;6156641;23;20499;-87
2023/09/10 07:30:34;;;;;;;13.80;12.40;;;24.70;92.60;;;;;;6154708;23;20404;-87
2023/09/10 07:33:01;;;;;;;16.83;12.93;;;24.70;92.60;;;;;;6155022;23;20409;-88
2023/09/10 07:35:28;;;;;;;13.70;12.50;;;24.70;93.00;;;;;;6156210;23;20430;-86
2023/09/10 07:37:56;;;;;;;12.13;10.77;;;24.80;92.70;;;;;;6156449;23;20400;-86
2023/09/10 07:40:24;;;;;;;11.20;10.10;;;24.80;92.50;;;;;;6156335;23;20450;-93
2023/09/10 07:42:51;;;;;;;12.43;9.97;;;24.80;92.40;;;;;;6154995;23;20899;-86
2023/09/10 07:45:18;;;;;;;13.37;10.57;;;24.80;92.30;;;;;;6154091;23;20896;-86
2023/09/10 07:47:45;;;;;;;12.90;11.20;;;24.80;92.20;;;;;;6155240;23;20486;-86
2023/09/10 07:50:11;;;;;;;11.40;10.30;;;24.80;92.10;;;;;;6155731;23;20399;-86
2023/09/10 07:52:38;;;;;;;10.13;9.13;;;24.80;92.10;;;;;;6155990;23;20396;-87
2023/09/10 07:55:06;;;;;;;10.63;9.63;;;24.80;92.10;;;;;;6156213;23;20709;-86
2023/09/10 07:57:34;;;;;;;11.03;10.07;;;24.90;92.00;;;;;;6155989;23;20403;-93
2023/09/10 08:00:00;;;;;;;11.87;10.10;;;24.90;92.00;;;;;;6156382;23;20767;-92
2023/09/10 08:02:28;;;;;;;11.80;9.87;;;24.90;91.90;;;;;;6155661;23;20410;-91
2023/09/10 08:04:55;;;;;;;14.73;9.40;;;24.90;91.90;;;;;;6156381;23;20435;-91
2023/09/10 08:07:22;;;;;;;11.23;8.90;;;24.90;91.80;;;;;;6156146;23;20494;-91
2023/09/10 08:09:49;;;;;;;9.30;8.50;;;24.90;91.80;;;;;;6156924;23;20399;-92
2023/09/10 08:12:16;;;;;;;11.80;9.77;;;24.90;91.70;;;;;;6157963;23;20408;-92
2023/09/10 08:14:44;;;;;;;10.70;9.60;;;24.90;91.80;;;;;;6157339;23;20427;-92
2023/09/10 08:17:11;;;;;;;10.93;9.50;;;24.90;92.00;;;;;;6157499;23;20399;-91
2023/09/10 08:19:38;;;;;;;14.40;8.23;;;24.90;91.90;;;;;;6157051;23;20502;-87
2023/09/10 08:22:05;;;;;;;10.87;9.03;;;24.90;91.80;;;;;;6157266;23;20408;-86
2023/09/10 08:24:32;;;;;;;9.73;8.70;;;24.90;91.90;;;;;;6157321;23;20400;-86
2023/09/10 08:27:02;;;;;;;10.30;9.30;;;25.00;91.90;;;;;;6157229;23;20450;-87
2023/09/10 08:29:30;;;;;;;11.60;8.90;;;25.00;91.80;;;;;;6158140;23;20758;-86
2023/09/10 08:32:00;;;;;;;9.83;8.83;;;25.10;91.80;;;;;;6158322;23;20431;-86
2023/09/10 08:34:27;;;;;;;9.70;8.80;;;25.00;91.90;;;;;;6157783;23;20463;-85
2023/09/10 08:36:54;;;;;;;10.13;9.23;;;25.00;92.00;;;;;;6157878;23;20399;-95
2023/09/10 08:39:21;;;;;;;9.23;8.17;;;25.00;91.90;;;;;;6156821;23;20483;-95
2023/09/10 08:41:58;;;;;;;14.17;9.17;;;25.00;91.90;;;;;;6157217;23;20408;-95
2023/09/10 08:44:26;;;;;;;9.50;8.60;;;25.00;91.80;;;;;;6157111;23;20867;-94
2023/09/10 08:46:56;;;;;;;13.50;8.87;;;25.00;91.80;;;;;;6157419;23;20400;-94
2023/09/10 08:49:27;;;;;;;12.70;7.73;;;25.00;91.70;;;;;;6156557;23;20474;-90
2023/09/10 08:51:54;;;;;;;9.70;8.87;;;25.00;91.70;;;;;;6158826;23;20403;-96
2023/09/10 08:54:21;;;;;;;10.20;7.03;;;25.00;91.90;;;;;;6162902;23;20400;-92
2023/09/10 08:56:49;;;;;;;8.97;8.07;;;25.00;91.90;;;;;;6156401;23;20913;-87
2023/09/10 08:59:17;;;;;;;8.77;8.10;;;25.00;92.00;;;;;;6156356;23;20399;-95
2023/09/10 09:01:45;;;;;;;8.60;7.80;;;25.10;92.00;;;;;;6155992;23;20404;-86
2023/09/10 09:04:13;;;;;;;10.03;8.80;;;25.00;91.90;;;;;;6156413;23;20700;-87
2023/09/10 09:06:48;;;;;;;8.93;8.03;;;25.00;91.90;;;;;;6158196;23;20423;-86
2023/09/10 09:09:19;;;;;;;9.37;8.47;;;25.00;91.90;;;;;;6156243;23;20711;-86
2023/09/10 09:11:47;;;;;;;8.70;7.90;;;25.00;91.90;;;;;;6154928;23;20398;-86
2023/09/10 09:14:15;;;;;;;9.73;8.67;;;25.00;91.80;;;;;;6156714;23;20392;-93
2023/09/10 09:16:42;;;;;;;9.40;8.57;;;25.00;91.70;;;;;;6156383;23;20402;-92
2023/09/10 09:19:12;;;;;;;9.93;8.93;;;25.00;91.70;;;;;;6156346;23;20398;-86
2023/09/10 09:21:42;;;;;;;9.13;7.60;;;25.10;91.70;;;;;;6156139;23;20812;-85
2023/09/10 09:24:10;;;;;;;9.43;8.43;;;25.00;91.70;;;;;;6155912;23;20897;-86
2023/09/10 09:26:39;;;;;;;9.03;8.33;;;25.20;91.80;;;;;;6156250;23;20436;-85
2023/09/10 09:29:07;;;;;;;8.10;7.30;;;25.00;91.70;;;;;;6156377;23;20396;-85
2023/09/10 09:31:34;;;;;;;8.33;7.43;;;25.00;91.70;;;;;;6156137;23;20403;-85
2023/09/10 09:34:01;;;;;;;9.10;8.20;;;25.20;91.70;;;;;;6157808;23;20392;-85
2023/09/10 09:36:29;;;;;;;8.10;7.40;;;25.10;91.70;;;;;;6157878;23;20423;-86
2023/09/10 09:38:57;;;;;;;8.30;7.50;;;25.10;91.70;;;;;;6158195;23;20396;-86
2023/09/10 09:41:24;;;;;;;8.10;7.47;;;25.10;91.70;;;;;;6157944;23;20443;-85
2023/09/10 09:43:51;;;;;;;7.80;7.10;;;25.10;91.60;;;;;;6157950;23;20403;-85
2023/09/10 09:46:18;;;;;;;8.40;7.70;;;25.10;91.70;;;;;;6156689;23;20490;-85
2023/09/10 09:48:45;;;;;;;7.97;7.27;;;25.10;91.70;;;;;;6158020;23;20404;-93
2023/09/10 09:51:15;;;;;;;8.73;7.80;;;25.00;91.60;;;;;;6158085;23;20479;-85
2023/09/10 09:53:43;;;;;;;9.27;8.33;;;25.10;91.60;;;;;;6158147;23;20758;-93
2023/09/10 09:56:12;;;;;;;8.07;7.37;;;25.10;91.60;;;;;;6157910;23;20404;-85
2023/09/10 09:58:39;;;;;;;8.77;8.07;;;25.10;91.60;;;;;;6157677;23;20404;-85
2023/09/10 10:01:07;;;;;;;14.40;7.80;;;25.10;91.60;;;;;;6157546;23;21033;-85
2023/09/10 10:03:34;;;;;;;8.20;7.50;;;25.10;91.60;;;;;;6157774;23;20743;-85
2023/09/10 10:06:03;;;;;;;6.70;6.20;;;25.10;91.60;;;;;;6157588;23;20511;-85
2023/09/10 10:08:30;;;;;;;9.30;7.90;;;25.10;91.60;;;;;;6157818;23;20400;-94
2023/09/10 10:10:57;;;;;;;8.00;7.30;;;25.10;91.60;;;;;;6157806;23;20415;-86
2023/09/10 10:13:27;;;;;;;10.50;7.43;;;25.10;91.60;;;;;;6157777;23;20422;-85
2023/09/10 10:15:55;;;;;;;8.87;8.07;;;25.10;91.60;;;;;;6157655;23;20402;-86
2023/09/10 10:18:26;;;;;;;6.97;6.30;;;25.10;91.60;;;;;;6157706;23;20392;-85
2023/09/10 10:20:53;;;;;;;11.13;8.33;;;25.10;91.60;;;;;;6157625;23;21015;-85
2023/09/10 10:23:20;;;;;;;10.70;7.13;;;25.10;91.60;;;;;;6158205;23;20407;-85
2023/09/10 10:25:48;;;;;;;7.87;6.63;;;25.10;91.60;;;;;;6158187;23;20941;-86
2023/09/10 10:28:16;;;;;;;7.93;7.27;;;25.10;91.60;;;;;;6158519;23;20422;-85
2023/09/10 10:30:53;;;;;;;6.63;6.13;;;25.10;91.60;;;;;;6158523;23;20410;-86
2023/09/10 10:36:53;;;;;;;10.20;7.00;;;25.10;91.60;;;;;;6158318;23;20359;-86
2023/09/10 10:39:28;;;;;;;6.77;6.23;;;25.10;91.70;;;;;;6157617;23;20383;-86
2023/09/10 10:41:57;;;;;;;7.40;6.80;;;25.10;91.60;;;;;;6157509;23;20510;-86
2023/09/10 10:44:31;;;;;;;8.10;6.40;;;25.10;91.60;;;;;;6157984;23;20497;-85
2023/09/10 10:47:03;;;;;;;7.30;6.70;;;25.10;91.60;;;;;;6158292;23;20467;-85
2023/09/10 10:49:31;;;;;;;6.83;6.30;;;25.10;91.60;;;;;;6158282;23;20479;-85
2023/09/10 10:52:05;;;;;;;7.43;6.83;;;25.10;91.60;;;;;;6157807;23;20502;-85
2023/09/10 10:54:34;;;;;;;6.80;6.10;;;25.10;91.60;;;;;;6157510;23;20388;-85
2023/09/10 10:57:03;;;;;;;6.77;6.17;;;25.10;91.60;;;;;;6157699;23;20488;-87
2023/09/10 10:59:30;;;;;;;6.70;6.10;;;25.20;91.60;;;;;;6157742;23;20396;-85
2023/09/10 11:02:13;;;;;;;6.80;6.30;;;25.10;91.60;;;;;;6157604;23;20473;-86
2023/09/10 11:04:54;;;;;;;7.47;6.77;;;25.10;91.60;;;;;;6157368;23;20432;-86
2023/09/10 11:07:22;;;;;;;6.67;6.07;;;25.20;91.60;;;;;;6157822;23;20403;-92
2023/09/10 11:09:49;;;;;;;6.30;5.90;;;25.10;91.60;;;;;;6157593;23;20417;-92
2023/09/10 11:12:16;;;;;;;7.23;6.63;;;25.10;91.60;;;;;;6158163;23;20408;-93
2023/09/10 11:15:06;;;;;;;7.43;6.73;;;25.10;91.60;;;;;;6157475;23;20391;-90
2023/09/10 11:17:35;;;;;;;7.13;6.63;;;25.20;91.60;;;;;;6157896;23;20396;-90
2023/09/10 11:20:03;;;;;;;7.83;7.03;;;25.20;91.60;;;;;;6157857;23;20504;-93
2023/09/10 11:23:09;;;;;;;6.07;5.63;;;25.10;91.60;;;;;;6157772;23;20452;-92
2023/09/10 11:25:39;;;;;;;6.43;5.90;;;25.20;91.60;;;;;;6157915;23;20731;-91
2023/09/10 11:28:38;;;;;;;6.40;5.80;;;25.20;91.60;;;;;;6157977;23;20396;-94
2023/09/10 11:31:05;;;;;;;7.10;6.60;;;25.20;91.60;;;;;;6157787;23;20458;-91
2023/09/10 11:33:33;;;;;;;5.93;5.53;;;25.20;91.60;;;;;;6157756;23;20406;-94
2023/09/10 11:36:00;;;;;;;5.50;5.10;;;25.10;91.60;;;;;;6157490;23;20435;-94
2023/09/10 11:38:33;;;;;;;6.30;5.70;;;25.20;91.60;;;;;;6157184;23;20884;-93
2023/09/10 11:41:00;;;;;;;6.30;5.80;;;25.20;91.60;;;;;;6157649;23;20423;-92
2023/09/10 11:43:29;;;;;;;6.70;6.10;;;25.20;91.60;;;;;;6157370;23;20399;-88
2023/09/10 11:45:57;;;;;;;6.80;6.20;;;25.10;91.60;;;;;;6158134;23;20416;-91
2023/09/10 11:48:24;;;;;;;6.30;5.80;;;25.20;91.60;;;;;;6158019;23;20399;-94
2023/09/10 11:50:51;;;;;;;6.10;5.60;;;25.20;91.60;;;;;;6157947;23;20470;-93
2023/09/10 11:53:19;;;;;;;6.70;6.20;;;25.20;91.60;;;;;;6157772;23;20442;-94
2023/09/10 11:55:48;;;;;;;6.83;6.13;;;25.30;91.70;;;;;;6157391;23;20410;-93
2023/09/10 11:58:15;;;;;;;6.97;6.27;;;25.20;91.60;;;;;;6157315;23;20771;-91
2023/09/10 12:00:44;;;;;;;6.10;5.70;;;25.20;91.60;;;;;;6157013;23;20439;-91
2023/09/10 12:03:11;;;;;;;6.10;5.63;;;25.20;91.60;;;;;;6157574;23;20883;-94
2023/09/10 12:05:38;;;;;;;6.10;5.60;;;25.20;91.60;;;;;;6156986;23;20431;-88
2023/09/10 12:08:05;;;;;;;6.10;5.70;;;25.20;91.60;;;;;;6157849;23;20408;-92
2023/09/10 12:10:33;;;;;;;6.10;5.60;;;25.20;91.60;;;;;;6157413;23;20400;-91
2023/09/10 12:13:03;;;;;;;6.07;5.67;;;25.20;91.60;;;;;;6157176;23;20492;-93
2023/09/10 12:15:33;;;;;;;6.57;6.07;;;25.20;91.60;;;;;;6157202;23;20404;-90
2023/09/10 12:18:04;;;;;;;6.20;5.70;;;25.20;91.60;;;;;;6157237;23;20392;-94
2023/09/10 12:20:33;;;;;;;6.30;5.90;;;25.20;91.60;;;;;;6157369;23;20415;-91
2023/09/10 12:23:00;;;;;;;5.87;5.47;;;25.20;91.60;;;;;;6157307;23;20407;-90
2023/09/10 12:25:27;;;;;;;5.87;5.37;;;25.20;91.60;;;;;;6157446;23;20400;-93
2023/09/10 12:27:54;;;;;;;5.63;5.13;;;25.20;91.60;;;;;;6156647;23;20883;-88
2023/09/10 12:30:23;;;;;;;6.10;5.70;;;25.20;91.60;;;;;;6157324;23;20427;-93
2023/09/10 12:32:50;;;;;;;5.10;4.80;;;25.20;91.60;;;;;;6156617;23;20396;-91
2023/09/10 12:35:17;;;;;;;5.97;5.47;;;25.20;91.60;;;;;;6156976;23;20740;-93
2023/09/10 12:37:50;;;;;;;5.60;5.20;;;25.20;92.00;;;;;;6156949;23;20498;-92
2023/09/10 12:40:17;;;;;;;6.17;5.70;;;25.20;91.60;;;;;;6156601;23;20427;-87
2023/09/10 12:42:43;;;;;;;5.87;5.33;;;25.20;91.60;;;;;;6156933;23;20546;-91
2023/09/10 12:45:11;;;;;;;7.03;6.33;;;25.20;91.60;;;;;;6157450;23;20396;-93
2023/09/10 12:47:39;;;;;;;5.07;4.67;;;25.20;91.60;;;;;;6157503;23;20426;-90
2023/09/10 12:50:07;;;;;;;5.87;5.37;;;25.20;91.60;;;;;;6157140;23;20399;-93
2023/09/10 12:52:34;;;;;;;5.37;4.97;;;25.20;91.70;;;;;;6156633;23;20895;-92